Time,TemperatureF,DewpointF,PressureIn,WindDirection,WindDirectionDegrees,WindSpeedMPH,WindSpeedGustMPH,Humidity,HourlyPrecipIn,Conditions,Clouds,dailyrainin,SoftwareType,DateUTC
2013-03-05 00:10:00,39.8,26.0,30.09,West,277,3.0,8.0,57,0.00,,,0.00,weatherlink.com 1.10,2013-03-05 05:10:00,
2013-03-05 00:25:00,39.8,25.0,30.09,West,279,4.0,7.0,56,0.00,,,0.00,weatherlink.com 1.10,2013-03-05 05:25:00,
2013-03-05 00:40:00,40.0,26.0,30.09,West,260,3.0,7.0,58,0.00,,,0.00,weatherlink.com 1.10,2013-03-05 05:40:00,
2013-03-05 00:55:00,39.8,28.0,30.09,West,277,4.0,7.0,62,0.00,,,0.00,weatherlink.com 1.10,2013-03-05 05:55:00,
2013-03-05 01:10:00,39.9,28.0,30.09,West,279,5.0,5.0,62,0.00,,,0.00,weatherlink.com 1.10,2013-03-05 06:10:00,
2013-03-05 01:25:00,40.0,28.0,30.09,West,279,3.0,6.0,63,0.00,,,0.00,weatherlink.com 1.10,2013-03-05 06:25:00,
2013-03-05 01:40:00,40.1,27.0,30.08,West,277,4.0,5.0,60,0.00,,,0.00,weatherlink.com 1.10,2013-03-05 06:40:00,
2013-03-05 01:55:00,40.3,28.0,30.09,West,280,3.0,4.0,61,0.00,,,0.00,weatherlink.com 1.10,2013-03-05 06:55:00,
2013-03-05 02:10:00,40.4,25.0,30.08,WNW,283,4.0,5.0,55,0.00,,,0.00,weatherlink.com 1.10,2013-03-05 07:10:00,
2013-03-05 02:25:00,40.9,25.0,30.08,WNW,286,4.0,4.0,54,0.00,,,0.00,weatherlink.com 1.10,2013-03-05 07:25:00,
2013-03-05 02:40:00,41.3,25.0,30.07,West,273,4.0,4.0,52,0.00,,,0.00,weatherlink.com 1.10,2013-03-05 07:40:00,
2013-03-05 02:55:00,40.9,26.0,30.08,West,281,2.0,5.0,55,0.00,,,0.00,weatherlink.com 1.10,2013-03-05 07:55:00,
2013-03-05 03:10:00,40.9,26.0,30.08,West,267,2.0,5.0,55,0.00,,,0.00,weatherlink.com 1.10,2013-03-05 08:10:00,
2013-03-05 03:25:00,40.9,25.0,30.07,West,267,2.0,4.0,53,0.00,,,0.00,weatherlink.com 1.10,2013-03-05 08:25:00,
2013-03-05 03:40:00,41.0,25.0,30.08,West,269,3.0,3.0,53,0.00,,,0.00,weatherlink.com 1.10,2013-03-05 08:40:00,
2013-03-05 03:55:00,40.5,27.0,30.08,WNW,283,1.0,4.0,59,0.00,,,0.00,weatherlink.com 1.10,2013-03-05 08:55:00,
2013-03-05 04:10:00,40.3,25.0,30.08,WNW,283,2.0,3.0,55,0.00,,,0.00,weatherlink.com 1.10,2013-03-05 09:10:00,
2013-03-05 04:25:00,40.2,24.0,30.08,WNW,283,2.0,3.0,53,0.00,,,0.00,weatherlink.com 1.10,2013-03-05 09:25:00,
2013-03-05 04:40:00,40.0,24.0,30.09,WNW,284,1.0,3.0,53,0.00,,,0.00,weatherlink.com 1.10,2013-03-05 09:40:00,
2013-03-05 04:55:00,39.3,25.0,30.10,WNW,283,2.0,4.0,57,0.00,,,0.00,weatherlink.com 1.10,2013-03-05 09:55:00,
2013-03-05 05:11:00,38.4,25.0,30.11,WNW,290,3.0,4.0,60,0.00,,,0.00,weatherlink.com 1.10,2013-03-05 10:11:00,
2013-03-05 05:26:00,38.5,27.0,30.11,WNW,283,4.0,5.0,64,0.00,,,0.00,weatherlink.com 1.10,2013-03-05 10:26:00,
2013-03-05 05:41:00,39.0,28.0,30.11,WNW,294,1.0,4.0,64,0.00,,,0.00,weatherlink.com 1.10,2013-03-05 10:41:00,
2013-03-05 05:56:00,39.1,27.0,30.11,WNW,295,0.0,2.0,63,0.00,,,0.00,weatherlink.com 1.10,2013-03-05 10:56:00,
2013-03-05 06:11:00,39.8,28.0,30.11,West,266,3.0,3.0,62,0.00,,,0.00,weatherlink.com 1.10,2013-03-05 11:11:00,
2013-03-05 06:26:00,39.7,29.0,30.11,West,273,1.0,4.0,66,0.00,,,0.00,weatherlink.com 1.10,2013-03-05 11:26:00,
2013-03-05 06:41:00,40.0,29.0,30.10,WNW,294,1.0,4.0,66,0.00,,,0.00,weatherlink.com 1.10,2013-03-05 11:41:00,
2013-03-05 06:56:00,40.1,29.0,30.11,West,277,1.0,4.0,65,0.00,,,0.00,weatherlink.com 1.10,2013-03-05 11:56:00,
2013-03-05 07:11:00,40.8,29.0,30.10,WNW,290,1.0,4.0,64,0.00,,,0.00,weatherlink.com 1.10,2013-03-05 12:11:00,
2013-03-05 07:26:00,41.4,30.0,30.10,West,279,0.0,2.0,64,0.00,,,0.00,weatherlink.com 1.10,2013-03-05 12:26:00,
2013-03-05 07:41:00,42.8,31.0,30.11,West,276,2.0,3.0,64,0.00,,,0.00,weatherlink.com 1.10,2013-03-05 12:41:00,
2013-03-05 07:56:00,44.7,31.0,30.11,WNW,296,2.0,4.0,60,0.00,,,0.00,weatherlink.com 1.10,2013-03-05 12:56:00,
2013-03-05 08:11:00,46.0,31.0,30.11,West,274,4.0,9.0,56,0.00,,,0.00,weatherlink.com 1.10,2013-03-05 13:11:00,
2013-03-05 08:26:00,46.7,32.0,30.10,West,269,4.0,7.0,58,0.00,,,0.00,weatherlink.com 1.10,2013-03-05 13:26:00,
2013-03-05 08:41:00,47.8,32.0,30.10,West,277,4.0,8.0,55,0.00,,,0.00,weatherlink.com 1.10,2013-03-05 13:41:00,
2013-03-05 08:56:00,48.6,34.0,30.10,WSW,251,8.0,12.0,57,0.00,,,0.00,weatherlink.com 1.10,2013-03-05 13:56:00,
2013-03-05 09:11:00,49.4,35.0,30.09,WSW,253,6.0,13.0,57,0.00,,,0.00,weatherlink.com 1.10,2013-03-05 14:11:00,
2013-03-05 09:26:00,50.0,37.0,30.09,WSW,241,8.0,13.0,61,0.00,,,0.00,weatherlink.com 1.10,2013-03-05 14:26:00,
2013-03-05 09:41:00,50.5,39.0,30.08,WSW,239,9.0,13.0,64,0.00,,,0.00,weatherlink.com 1.10,2013-03-05 14:41:00,
2013-03-05 09:56:00,51.0,39.0,30.08,WSW,253,8.0,13.0,64,0.00,,,0.00,weatherlink.com 1.10,2013-03-05 14:56:00,
2013-03-05 10:11:00,51.8,40.0,30.08,SW,236,7.0,12.0,65,0.00,,,0.00,weatherlink.com 1.10,2013-03-05 15:11:00,
2013-03-05 10:26:00,52.5,43.0,30.07,SW,227,6.0,12.0,70,0.00,,,0.00,weatherlink.com 1.10,2013-03-05 15:26:00,
2013-03-05 10:41:00,53.3,44.0,30.07,SW,236,12.0,14.0,70,0.00,,,0.00,weatherlink.com 1.10,2013-03-05 15:41:00,
2013-03-05 10:56:00,53.7,45.0,30.05,WSW,244,8.0,13.0,72,0.00,,,0.00,weatherlink.com 1.10,2013-03-05 15:56:00,
2013-03-05 11:11:00,54.0,45.0,30.05,WSW,253,5.0,13.0,72,0.00,,,0.00,weatherlink.com 1.10,2013-03-05 16:11:00,
2013-03-05 11:26:00,53.6,45.0,30.04,SW,236,11.0,14.0,73,0.00,,,0.00,weatherlink.com 1.10,2013-03-05 16:26:00,
2013-03-05 11:41:00,53.6,46.0,30.03,SW,224,4.0,14.0,75,0.00,,,0.00,weatherlink.com 1.10,2013-03-05 16:41:00,
2013-03-05 11:56:00,55.0,47.0,30.03,West,261,5.0,12.0,75,0.00,,,0.00,weatherlink.com 1.10,2013-03-05 16:56:00,
2013-03-05 12:12:00,55.6,47.0,30.03,WSW,244,6.0,12.0,74,0.00,,,0.00,weatherlink.com 1.10,2013-03-05 17:12:00,
2013-03-05 12:27:00,55.5,48.0,30.02,WSW,255,7.0,13.0,75,0.00,,,0.00,weatherlink.com 1.10,2013-03-05 17:27:00,
2013-03-05 12:42:00,54.7,47.0,30.01,SW,227,9.0,17.0,76,0.00,,,0.00,weatherlink.com 1.10,2013-03-05 17:42:00,
2013-03-05 12:57:00,54.3,47.0,30.00,SSW,201,8.0,18.0,77,0.00,,,0.00,weatherlink.com 1.10,2013-03-05 17:57:00,
2013-03-05 13:12:00,54.8,48.0,29.98,SW,219,4.0,20.0,77,0.00,,,0.00,weatherlink.com 1.10,2013-03-05 18:12:00,
2013-03-05 13:27:00,54.9,48.0,29.97,SW,227,15.0,20.0,77,0.00,,,0.00,weatherlink.com 1.10,2013-03-05 18:27:00,
2013-03-05 13:42:00,54.5,47.0,29.96,SW,221,13.0,20.0,77,0.00,,,0.00,weatherlink.com 1.10,2013-03-05 18:42:00,
2013-03-05 13:57:00,54.5,47.0,29.95,SSW,207,11.0,20.0,76,0.00,,,0.00,weatherlink.com 1.10,2013-03-05 18:57:00,
2013-03-05 14:12:00,54.9,47.0,29.95,SW,226,10.0,20.0,76,0.00,,,0.00,weatherlink.com 1.10,2013-03-05 19:12:00,
2013-03-05 14:27:00,54.7,47.0,29.95,SW,223,18.0,26.0,76,0.00,,,0.00,weatherlink.com 1.10,2013-03-05 19:27:00,
2013-03-05 14:42:00,54.8,47.0,29.94,SW,220,19.0,24.0,76,0.00,,,0.00,weatherlink.com 1.10,2013-03-05 19:42:00,
2013-03-05 14:57:00,54.8,48.0,29.93,SW,214,18.0,22.0,77,0.00,,,0.00,weatherlink.com 1.10,2013-03-05 19:57:00,
2013-03-05 15:12:00,55.5,47.0,29.93,WSW,248,7.0,18.0,74,0.00,,,0.00,weatherlink.com 1.10,2013-03-05 20:12:00,
2013-03-05 15:27:00,55.6,47.0,29.93,SSW,204,6.0,24.0,72,0.00,,,0.00,weatherlink.com 1.10,2013-03-05 20:27:00,
2013-03-05 15:42:00,55.3,48.0,29.92,SW,228,9.0,16.0,75,0.00,,,0.00,weatherlink.com 1.10,2013-03-05 20:42:00,
2013-03-05 15:57:00,55.1,48.0,29.91,West,261,5.0,13.0,76,0.00,,,0.00,weatherlink.com 1.10,2013-03-05 20:57:00,
2013-03-05 16:12:00,54.9,48.0,29.91,SW,223,3.0,9.0,78,0.00,,,0.00,weatherlink.com 1.10,2013-03-05 21:12:00,
2013-03-05 16:27:00,54.8,48.0,29.90,SW,219,4.0,7.0,78,0.00,,,0.00,weatherlink.com 1.10,2013-03-05 21:27:00,
2013-03-05 16:42:00,54.5,48.0,29.89,SW,232,6.0,12.0,80,0.00,,,0.00,weatherlink.com 1.10,2013-03-05 21:42:00,
2013-03-05 16:57:00,55.2,49.0,29.89,SSW,200,8.0,11.0,80,0.00,,,0.00,weatherlink.com 1.10,2013-03-05 21:57:00,
2013-03-05 17:12:00,55.3,49.0,29.87,SW,226,7.0,20.0,80,0.00,,,0.00,weatherlink.com 1.10,2013-03-05 22:12:00,
2013-03-05 17:27:00,55.0,49.0,29.87,WSW,253,6.0,14.0,81,0.00,,,0.00,weatherlink.com 1.10,2013-03-05 22:27:00,
2013-03-05 17:42:00,55.0,49.0,29.87,SSW,209,3.0,10.0,81,0.00,,,0.00,weatherlink.com 1.10,2013-03-05 22:42:00,
2013-03-05 17:57:00,55.2,49.0,29.87,SW,236,5.0,13.0,80,0.00,,,0.00,weatherlink.com 1.10,2013-03-05 22:57:00,
2013-03-05 18:12:00,55.3,49.0,29.86,WSW,238,7.0,16.0,80,0.00,,,0.00,weatherlink.com 1.10,2013-03-05 23:12:00,
2013-03-05 18:27:00,55.1,49.0,29.85,SW,234,4.0,13.0,80,0.00,,,0.00,weatherlink.com 1.10,2013-03-05 23:27:00,
2013-03-05 18:42:00,55.2,49.0,29.84,SW,236,4.0,16.0,80,0.00,,,0.00,weatherlink.com 1.10,2013-03-05 23:42:00,
2013-03-05 18:57:00,54.9,50.0,29.84,WSW,250,3.0,13.0,82,0.00,,,0.00,weatherlink.com 1.10,2013-03-05 23:57:00,
2013-03-05 19:12:00,54.5,50.0,29.84,West,261,7.0,11.0,84,0.00,,,0.00,weatherlink.com 1.10,2013-03-06 00:12:00,
2013-03-05 19:27:00,54.5,50.0,29.83,West,265,10.0,15.0,85,0.00,,,0.00,weatherlink.com 1.10,2013-03-06 00:27:00,
2013-03-05 19:42:00,54.6,51.0,29.82,West,261,10.0,14.0,86,0.00,,,0.00,weatherlink.com 1.10,2013-03-06 00:42:00,
2013-03-05 19:57:00,54.8,50.0,29.82,WSW,240,9.0,16.0,85,0.00,,,0.00,weatherlink.com 1.10,2013-03-06 00:57:00,
2013-03-05 20:12:00,54.5,50.0,29.80,South,184,4.0,12.0,86,0.00,,,0.00,weatherlink.com 1.10,2013-03-06 01:12:00,
2013-03-05 20:28:00,54.6,51.0,29.79,WSW,242,4.0,16.0,87,0.00,,,0.00,weatherlink.com 1.10,2013-03-06 01:28:00,
2013-03-05 20:43:00,54.8,51.0,29.79,WSW,240,7.0,12.0,86,0.00,,,0.00,weatherlink.com 1.10,2013-03-06 01:43:00,
2013-03-05 20:58:00,54.4,51.0,29.77,SW,222,12.0,12.0,87,0.00,,,0.00,weatherlink.com 1.10,2013-03-06 01:58:00,
2013-03-05 21:13:00,54.5,51.0,29.76,WSW,244,11.0,16.0,88,0.00,,,0.00,weatherlink.com 1.10,2013-03-06 02:13:00,
2013-03-05 21:28:00,54.4,51.0,29.74,SW,232,2.0,15.0,88,0.00,,,0.00,weatherlink.com 1.10,2013-03-06 02:28:00,
2013-03-05 21:43:00,54.4,51.0,29.74,WSW,237,2.0,7.0,89,0.00,,,0.00,weatherlink.com 1.10,2013-03-06 02:43:00,
2013-03-05 21:58:00,55.0,52.0,29.72,West,264,4.0,10.0,89,0.00,,,0.00,weatherlink.com 1.10,2013-03-06 02:58:00,
2013-03-05 22:13:00,55.9,53.0,29.71,SW,219,7.0,16.0,89,0.00,,,0.00,weatherlink.com 1.10,2013-03-06 03:13:00,
2013-03-05 22:28:00,57.0,53.0,29.70,WSW,240,17.0,21.0,87,0.00,,,0.00,weatherlink.com 1.10,2013-03-06 03:28:00,
2013-03-05 22:43:00,56.8,53.0,29.69,WSW,245,15.0,22.0,88,0.00,,,0.00,weatherlink.com 1.10,2013-03-06 03:43:00,
2013-03-05 22:58:00,57.0,54.0,29.68,WSW,242,17.0,22.0,89,0.00,,,0.00,weatherlink.com 1.10,2013-03-06 03:58:00,
2013-03-05 23:13:00,57.6,54.0,29.67,SW,223,7.0,21.0,88,0.00,,,0.00,weatherlink.com 1.10,2013-03-06 04:13:00,
2013-03-05 23:28:00,57.3,54.0,29.65,SW,234,4.0,16.0,88,0.01,,,0.01,weatherlink.com 1.10,2013-03-06 04:28:00,
2013-03-05 23:43:00,57.0,54.0,29.64,WSW,246,10.0,15.0,88,0.02,,,0.02,weatherlink.com 1.10,2013-03-06 04:43:00,
2013-03-05 23:58:00,56.3,54.0,29.65,WNW,283,9.0,19.0,91,0.04,,,0.04,weatherlink.com 1.10,2013-03-06 04:58:00,